KCLK/CLK METAR and TAF weather

Enter ICAO airport designator
Station Type Date Time Source
KCLK METAR 2019/08/25 06:55 UTC NOAA

KCLK 250655Z AUTO 13005KT 10SM VCTS SCT095 23/19 A2993 RMK AO2 LTG DSNT NW THRU NE


Station Type Date Time Source
KCLK Decoded METAR 2019/08/25 06:55 UTC NOAA

Station name not available
Aug 25, 2019 - 02:55 AM EDT / 2019.08.25 0655 UTC
Wind: from the SE (130 degrees) at 6 MPH (5 KT):0
Visibility: 10 mile(s):0
Sky conditions: partly cloudy
Weather: thunder in the vicinity; Lightning observed
Temperature: 73 F (23 C)
Dew Point: 66 F (19 C)
Relative Humidity: 78%
Pressure (altimeter): 29.93 in. Hg (1013 hPa)
ob: KCLK 250655Z AUTO 13005KT 10SM VCTS SCT095 23/19 A2993 RMK AO2 LTG DSNT NW THRU NE
cycle: 7

Station Type Date Time Source
KCLK TAF UTC NOAA

Error!

Example: see airport list